sensor_id;sensor_type;location;lat;lon;timestamp;temperature;humidity
69084;SHT31;56185;48.526;9.044;2022-11-03T00:00:39;6.62;80.96
69084;SHT31;56185;48.526;9.044;2022-11-03T00:03:04;6.59;81.26
69084;SHT31;56185;48.526;9.044;2022-11-03T00:05:29;6.51;80.97
69084;SHT31;56185;48.526;9.044;2022-11-03T00:07:55;6.55;80.74
69084;SHT31;56185;48.526;9.044;2022-11-03T00:10:20;6.45;80.72
69084;SHT31;56185;48.526;9.044;2022-11-03T00:12:45;6.55;80.59
69084;SHT31;56185;48.526;9.044;2022-11-03T00:15:10;6.64;80.13
69084;SHT31;56185;48.526;9.044;2022-11-03T00:17:36;6.67;79.67
69084;SHT31;56185;48.526;9.044;2022-11-03T00:20:01;6.68;79.64
69084;SHT31;56185;48.526;9.044;2022-11-03T00:22:26;6.37;80.66
69084;SHT31;56185;48.526;9.044;2022-11-03T00:24:51;6.35;80.73
69084;SHT31;56185;48.526;9.044;2022-11-03T00:27:17;6.42;80.48
69084;SHT31;56185;48.526;9.044;2022-11-03T00:29:42;6.44;80.39
69084;SHT31;56185;48.526;9.044;2022-11-03T00:32:07;6.37;80.50
69084;SHT31;56185;48.526;9.044;2022-11-03T00:34:32;6.25;81.06
69084;SHT31;56185;48.526;9.044;2022-11-03T00:36:58;6.24;81.33
69084;SHT31;56185;48.526;9.044;2022-11-03T00:39:23;6.17;82.29
69084;SHT31;56185;48.526;9.044;2022-11-03T00:41:48;6.13;83.00
69084;SHT31;56185;48.526;9.044;2022-11-03T00:44:13;6.18;83.16
69084;SHT31;56185;48.526;9.044;2022-11-03T00:46:38;6.06;83.67
69084;SHT31;56185;48.526;9.044;2022-11-03T00:49:04;6.16;83.24
69084;SHT31;56185;48.526;9.044;2022-11-03T00:51:30;6.09;83.43
69084;SHT31;56185;48.526;9.044;2022-11-03T00:53:57;6.09;83.70
69084;SHT31;56185;48.526;9.044;2022-11-03T00:56:27;6.00;84.23
69084;SHT31;56185;48.526;9.044;2022-11-03T00:58:54;6.00;83.81
69084;SHT31;56185;48.526;9.044;2022-11-03T01:01:22;6.00;83.83
69084;SHT31;56185;48.526;9.044;2022-11-03T01:03:50;6.25;82.69
69084;SHT31;56185;48.526;9.044;2022-11-03T01:06:16;6.25;82.85
69084;SHT31;56185;48.526;9.044;2022-11-03T01:08:41;6.07;84.20
69084;SHT31;56185;48.526;9.044;2022-11-03T01:11:14;6.09;84.15
69084;SHT31;56185;48.526;9.044;2022-11-03T01:13:40;6.16;83.78
69084;SHT31;56185;48.526;9.044;2022-11-03T01:16:05;6.17;83.47
69084;SHT31;56185;48.526;9.044;2022-11-03T01:18:31;6.31;82.78
69084;SHT31;56185;48.526;9.044;2022-11-03T01:20:56;6.17;82.67
69084;SHT31;56185;48.526;9.044;2022-11-03T01:23:24;6.20;81.70
69084;SHT31;56185;48.526;9.044;2022-11-03T01:25:49;5.97;81.93
69084;SHT31;56185;48.526;9.044;2022-11-03T01:28:15;5.92;82.23
69084;SHT31;56185;48.526;9.044;2022-11-03T01:30:40;5.97;81.89
69084;SHT31;56185;48.526;9.044;2022-11-03T01:33:05;5.94;81.66
69084;SHT31;56185;48.526;9.044;2022-11-03T01:35:30;5.94;81.81
69084;SHT31;56185;48.526;9.044;2022-11-03T01:37:56;5.80;81.94
69084;SHT31;56185;48.526;9.044;2022-11-03T01:40:22;6.00;81.85
69084;SHT31;56185;48.526;9.044;2022-11-03T01:42:47;6.10;80.85
69084;SHT31;56185;48.526;9.044;2022-11-03T01:45:12;5.92;81.03
69084;SHT31;56185;48.526;9.044;2022-11-03T01:47:38;5.89;80.53
69084;SHT31;56185;48.526;9.044;2022-11-03T01:50:09;5.73;80.72
69084;SHT31;56185;48.526;9.044;2022-11-03T01:52:39;5.96;80.43
69084;SHT31;56185;48.526;9.044;2022-11-03T01:55:10;5.82;80.55
69084;SHT31;56185;48.526;9.044;2022-11-03T01:57:41;5.62;81.26
69084;SHT31;56185;48.526;9.044;2022-11-03T02:00:08;5.63;81.44
69084;SHT31;56185;48.526;9.044;2022-11-03T02:02:34;5.55;82.05
69084;SHT31;56185;48.526;9.044;2022-11-03T02:05:01;5.63;81.91
69084;SHT31;56185;48.526;9.044;2022-11-03T02:07:35;5.65;81.36
69084;SHT31;56185;48.526;9.044;2022-11-03T02:10:02;5.52;81.01
69084;SHT31;56185;48.526;9.044;2022-11-03T02:12:28;5.49;81.26
69084;SHT31;56185;48.526;9.044;2022-11-03T02:15:02;5.42;81.28
69084;SHT31;56185;48.526;9.044;2022-11-03T02:17:29;5.36;81.33
69084;SHT31;56185;48.526;9.044;2022-11-03T02:20:05;5.42;81.08
69084;SHT31;56185;48.526;9.044;2022-11-03T02:25:47;5.27;80.31
69084;SHT31;56185;48.526;9.044;2022-11-03T02:28:16;5.32;80.45
69084;SHT31;56185;48.526;9.044;2022-11-03T02:33:39;5.27;80.99
69084;SHT31;56185;48.526;9.044;2022-11-03T02:36:24;5.05;81.72
69084;SHT31;56185;48.526;9.044;2022-11-03T02:39:27;5.18;81.28
69084;SHT31;56185;48.526;9.044;2022-11-03T02:41:55;5.25;80.73
69084;SHT31;56185;48.526;9.044;2022-11-03T02:44:21;5.14;81.20
69084;SHT31;56185;48.526;9.044;2022-11-03T02:46:51;4.86;82.44
69084;SHT31;56185;48.526;9.044;2022-11-03T02:49:18;4.94;82.20
69084;SHT31;56185;48.526;9.044;2022-11-03T02:51:43;4.90;83.28
69084;SHT31;56185;48.526;9.044;2022-11-03T02:54:19;4.84;83.37
69084;SHT31;56185;48.526;9.044;2022-11-03T02:56:57;4.76;84.24
69084;SHT31;56185;48.526;9.044;2022-11-03T02:59:33;4.93;84.08
69084;SHT31;56185;48.526;9.044;2022-11-03T03:02:07;4.88;84.83
69084;SHT31;56185;48.526;9.044;2022-11-03T03:04:41;4.91;85.12
69084;SHT31;56185;48.526;9.044;2022-11-03T03:07:10;5.01;85.36
69084;SHT31;56185;48.526;9.044;2022-11-03T03:09:40;4.93;86.74
69084;SHT31;56185;48.526;9.044;2022-11-03T03:12:09;4.97;86.27
69084;SHT31;56185;48.526;9.044;2022-11-03T03:14:39;5.32;85.90
69084;SHT31;56185;48.526;9.044;2022-11-03T03:17:07;5.25;85.25
69084;SHT31;56185;48.526;9.044;2022-11-03T03:20:00;5.32;85.05
69084;SHT31;56185;48.526;9.044;2022-11-03T03:22:32;5.38;84.59
69084;SHT31;56185;48.526;9.044;2022-11-03T03:27:38;5.48;84.43
69084;SHT31;56185;48.526;9.044;2022-11-03T03:30:06;5.35;85.08
69084;SHT31;56185;48.526;9.044;2022-11-03T03:32:38;5.39;84.72
69084;SHT31;56185;48.526;9.044;2022-11-03T03:35:05;5.49;84.40
69084;SHT31;56185;48.526;9.044;2022-11-03T03:37:34;5.34;85.83
69084;SHT31;56185;48.526;9.044;2022-11-03T03:40:05;5.34;85.57
69084;SHT31;56185;48.526;9.044;2022-11-03T03:42:31;5.35;85.80
69084;SHT31;56185;48.526;9.044;2022-11-03T03:44:58;5.41;85.22
69084;SHT31;56185;48.526;9.044;2022-11-03T03:47:28;5.45;85.29
69084;SHT31;56185;48.526;9.044;2022-11-03T03:49:55;5.41;85.33
69084;SHT31;56185;48.526;9.044;2022-11-03T03:52:21;5.62;83.81
69084;SHT31;56185;48.526;9.044;2022-11-03T03:54:46;5.41;84.62
69084;SHT31;56185;48.526;9.044;2022-11-03T03:57:15;5.36;85.55
69084;SHT31;56185;48.526;9.044;2022-11-03T03:59:41;5.28;86.16
69084;SHT31;56185;48.526;9.044;2022-11-03T04:02:07;5.15;85.89
69084;SHT31;56185;48.526;9.044;2022-11-03T04:04:33;5.23;85.88
69084;SHT31;56185;48.526;9.044;2022-11-03T04:06:58;5.34;86.18
69084;SHT31;56185;48.526;9.044;2022-11-03T04:09:23;5.30;85.75
69084;SHT31;56185;48.526;9.044;2022-11-03T04:11:48;5.21;85.70
69084;SHT31;56185;48.526;9.044;2022-11-03T04:14:14;5.24;85.99
69084;SHT31;56185;48.526;9.044;2022-11-03T04:16:39;5.45;86.13
69084;SHT31;56185;48.526;9.044;2022-11-03T04:19:04;5.27;86.05
69084;SHT31;56185;48.526;9.044;2022-11-03T04:21:29;5.20;86.15
69084;SHT31;56185;48.526;9.044;2022-11-03T04:23:55;5.20;86.53
69084;SHT31;56185;48.526;9.044;2022-11-03T04:26:20;5.23;85.89
69084;SHT31;56185;48.526;9.044;2022-11-03T04:28:46;5.20;86.39
69084;SHT31;56185;48.526;9.044;2022-11-03T04:31:12;5.25;85.98
69084;SHT31;56185;48.526;9.044;2022-11-03T04:33:38;5.15;86.21
69084;SHT31;56185;48.526;9.044;2022-11-03T04:36:09;5.24;85.65
69084;SHT31;56185;48.526;9.044;2022-11-03T04:38:36;5.32;85.06
69084;SHT31;56185;48.526;9.044;2022-11-03T04:41:06;5.21;84.82
69084;SHT31;56185;48.526;9.044;2022-11-03T04:43:36;5.20;84.52
69084;SHT31;56185;48.526;9.044;2022-11-03T04:46:03;5.18;84.80
69084;SHT31;56185;48.526;9.044;2022-11-03T04:48:29;5.21;85.08
69084;SHT31;56185;48.526;9.044;2022-11-03T04:50:58;5.18;85.09
69084;SHT31;56185;48.526;9.044;2022-11-03T04:53:23;5.38;84.62
69084;SHT31;56185;48.526;9.044;2022-11-03T04:55:52;5.18;85.49
69084;SHT31;56185;48.526;9.044;2022-11-03T04:58:27;5.11;85.22
69084;SHT31;56185;48.526;9.044;2022-11-03T05:00:56;4.97;85.87
69084;SHT31;56185;48.526;9.044;2022-11-03T05:03:24;5.05;85.06
69084;SHT31;56185;48.526;9.044;2022-11-03T05:05:51;5.05;85.16
69084;SHT31;56185;48.526;9.044;2022-11-03T05:08:18;5.03;85.39
69084;SHT31;56185;48.526;9.044;2022-11-03T05:10:43;5.07;84.37
69084;SHT31;56185;48.526;9.044;2022-11-03T05:13:16;5.00;84.45
69084;SHT31;56185;48.526;9.044;2022-11-03T05:15:43;4.97;84.21
69084;SHT31;56185;48.526;9.044;2022-11-03T05:18:28;4.79;85.82
69084;SHT31;56185;48.526;9.044;2022-11-03T05:20:55;5.07;84.59
69084;SHT31;56185;48.526;9.044;2022-11-03T05:23:22;4.86;85.29
69084;SHT31;56185;48.526;9.044;2022-11-03T05:25:52;5.01;83.97
69084;SHT31;56185;48.526;9.044;2022-11-03T05:30:49;4.91;84.68
69084;SHT31;56185;48.526;9.044;2022-11-03T05:35:46;4.70;85.86
69084;SHT31;56185;48.526;9.044;2022-11-03T05:38:14;4.74;85.11
69084;SHT31;56185;48.526;9.044;2022-11-03T05:40:40;4.74;85.11
69084;SHT31;56185;48.526;9.044;2022-11-03T05:43:07;4.65;86.16
69084;SHT31;56185;48.526;9.044;2022-11-03T05:45:36;4.69;85.65
69084;SHT31;56185;48.526;9.044;2022-11-03T05:48:04;4.77;85.17
69084;SHT31;56185;48.526;9.044;2022-11-03T05:50:34;4.79;84.81
69084;SHT31;56185;48.526;9.044;2022-11-03T05:53:11;4.79;85.21
69084;SHT31;56185;48.526;9.044;2022-11-03T05:55:41;4.74;86.13
69084;SHT31;56185;48.526;9.044;2022-11-03T06:00:53;4.81;84.89
69084;SHT31;56185;48.526;9.044;2022-11-03T06:03:23;4.70;85.96
69084;SHT31;56185;48.526;9.044;2022-11-03T06:05:49;4.81;85.46
69084;SHT31;56185;48.526;9.044;2022-11-03T06:08:19;4.72;85.06
69084;SHT31;56185;48.526;9.044;2022-11-03T06:10:48;4.93;84.38
69084;SHT31;56185;48.526;9.044;2022-11-03T06:13:18;4.88;84.81
69084;SHT31;56185;48.526;9.044;2022-11-03T06:15:45;4.80;85.44
69084;SHT31;56185;48.526;9.044;2022-11-03T06:18:21;4.94;84.37
69084;SHT31;56185;48.526;9.044;2022-11-03T06:20:53;4.98;84.12
69084;SHT31;56185;48.526;9.044;2022-11-03T06:23:21;4.90;84.80
69084;SHT31;56185;48.526;9.044;2022-11-03T06:25:47;4.77;85.26
69084;SHT31;56185;48.526;9.044;2022-11-03T06:28:27;4.77;85.76
69084;SHT31;56185;48.526;9.044;2022-11-03T06:30:54;4.74;86.35
69084;SHT31;56185;48.526;9.044;2022-11-03T06:33:26;4.74;86.12
69084;SHT31;56185;48.526;9.044;2022-11-03T06:35:59;4.80;85.62
69084;SHT31;56185;48.526;9.044;2022-11-03T06:38:27;4.66;86.12
69084;SHT31;56185;48.526;9.044;2022-11-03T06:40:52;4.69;86.43
69084;SHT31;56185;48.526;9.044;2022-11-03T06:45:57;4.73;86.07
69084;SHT31;56185;48.526;9.044;2022-11-03T06:48:27;4.69;85.38
69084;SHT31;56185;48.526;9.044;2022-11-03T06:50:54;4.69;85.97
69084;SHT31;56185;48.526;9.044;2022-11-03T06:53:22;4.80;85.02
69084;SHT31;56185;48.526;9.044;2022-11-03T06:55:48;4.81;85.93
69084;SHT31;56185;48.526;9.044;2022-11-03T06:58:21;4.87;85.23
69084;SHT31;56185;48.526;9.044;2022-11-03T07:00:48;4.74;85.62
69084;SHT31;56185;48.526;9.044;2022-11-03T07:03:31;4.88;85.16
69084;SHT31;56185;48.526;9.044;2022-11-03T07:08:36;5.04;85.56
69084;SHT31;56185;48.526;9.044;2022-11-03T07:11:10;5.14;85.22
69084;SHT31;56185;48.526;9.044;2022-11-03T07:13:39;5.11;84.57
69084;SHT31;56185;48.526;9.044;2022-11-03T07:16:12;4.94;85.73
69084;SHT31;56185;48.526;9.044;2022-11-03T07:18:41;4.94;85.23
69084;SHT31;56185;48.526;9.044;2022-11-03T07:29:32;5.00;85.51
69084;SHT31;56185;48.526;9.044;2022-11-03T07:31:58;5.15;85.72
69084;SHT31;56185;48.526;9.044;2022-11-03T07:34:27;5.15;84.83
69084;SHT31;56185;48.526;9.044;2022-11-03T07:36:55;5.24;84.28
69084;SHT31;56185;48.526;9.044;2022-11-03T07:39:20;5.24;84.32
69084;SHT31;56185;48.526;9.044;2022-11-03T07:41:46;5.18;85.23
69084;SHT31;56185;48.526;9.044;2022-11-03T07:44:19;5.31;84.69
69084;SHT31;56185;48.526;9.044;2022-11-03T07:46:45;5.38;84.39
69084;SHT31;56185;48.526;9.044;2022-11-03T07:49:40;5.27;84.35
69084;SHT31;56185;48.526;9.044;2022-11-03T07:52:09;5.38;84.22
69084;SHT31;56185;48.526;9.044;2022-11-03T07:54:35;5.39;84.65
69084;SHT31;56185;48.526;9.044;2022-11-03T07:57:05;5.35;84.52
69084;SHT31;56185;48.526;9.044;2022-11-03T07:59:43;5.51;84.86
69084;SHT31;56185;48.526;9.044;2022-11-03T08:02:32;5.58;85.27
69084;SHT31;56185;48.526;9.044;2022-11-03T08:04:58;5.59;84.07
69084;SHT31;56185;48.526;9.044;2022-11-03T08:07:24;5.56;83.67
69084;SHT31;56185;48.526;9.044;2022-11-03T08:09:50;5.51;84.35
69084;SHT31;56185;48.526;9.044;2022-11-03T08:12:16;5.51;84.21
69084;SHT31;56185;48.526;9.044;2022-11-03T08:14:41;5.58;84.24
69084;SHT31;56185;48.526;9.044;2022-11-03T08:17:06;5.67;84.53
69084;SHT31;56185;48.526;9.044;2022-11-03T08:19:32;5.72;83.78
69084;SHT31;56185;48.526;9.044;2022-11-03T08:21:57;5.69;84.18
69084;SHT31;56185;48.526;9.044;2022-11-03T08:24:22;5.86;84.76
69084;SHT31;56185;48.526;9.044;2022-11-03T08:26:48;5.87;84.61
69084;SHT31;56185;48.526;9.044;2022-11-03T08:29:13;5.87;83.92
69084;SHT31;56185;48.526;9.044;2022-11-03T08:31:38;6.02;84.94
69084;SHT31;56185;48.526;9.044;2022-11-03T08:34:04;6.11;84.47
69084;SHT31;56185;48.526;9.044;2022-11-03T08:36:29;6.14;84.08
69084;SHT31;56185;48.526;9.044;2022-11-03T08:38:54;6.18;84.12
69084;SHT31;56185;48.526;9.044;2022-11-03T08:41:19;6.23;83.21
69084;SHT31;56185;48.526;9.044;2022-11-03T08:43:45;6.25;83.69
69084;SHT31;56185;48.526;9.044;2022-11-03T08:46:10;6.35;83.18
69084;SHT31;56185;48.526;9.044;2022-11-03T08:48:35;6.40;83.23
69084;SHT31;56185;48.526;9.044;2022-11-03T08:51:00;6.44;82.98
69084;SHT31;56185;48.526;9.044;2022-11-03T08:53:26;6.45;83.53
69084;SHT31;56185;48.526;9.044;2022-11-03T08:55:52;6.54;83.67
69084;SHT31;56185;48.526;9.044;2022-11-03T08:58:17;6.48;83.78
69084;SHT31;56185;48.526;9.044;2022-11-03T09:00:43;6.65;84.18
69084;SHT31;56185;48.526;9.044;2022-11-03T09:03:08;6.65;84.02
69084;SHT31;56185;48.526;9.044;2022-11-03T09:05:33;6.72;83.82
69084;SHT31;56185;48.526;9.044;2022-11-03T09:07:59;6.81;83.56
69084;SHT31;56185;48.526;9.044;2022-11-03T09:10:24;6.88;82.88
69084;SHT31;56185;48.526;9.044;2022-11-03T09:12:50;6.91;82.65
69084;SHT31;56185;48.526;9.044;2022-11-03T09:15:15;6.97;83.43
69084;SHT31;56185;48.526;9.044;2022-11-03T09:17:40;7.09;83.41
69084;SHT31;56185;48.526;9.044;2022-11-03T09:20:06;7.20;83.02
69084;SHT31;56185;48.526;9.044;2022-11-03T09:22:31;7.35;83.57
69084;SHT31;56185;48.526;9.044;2022-11-03T09:24:56;7.47;83.16
69084;SHT31;56185;48.526;9.044;2022-11-03T09:27:22;7.55;82.60
69084;SHT31;56185;48.526;9.044;2022-11-03T09:29:47;7.71;83.37
69084;SHT31;56185;48.526;9.044;2022-11-03T09:32:12;7.82;82.36
69084;SHT31;56185;48.526;9.044;2022-11-03T09:34:37;7.89;82.48
69084;SHT31;56185;48.526;9.044;2022-11-03T09:37:03;7.93;82.55
69084;SHT31;56185;48.526;9.044;2022-11-03T09:39:28;7.88;82.50
69084;SHT31;56185;48.526;9.044;2022-11-03T09:41:54;7.95;83.21
69084;SHT31;56185;48.526;9.044;2022-11-03T09:44:20;8.05;82.96
69084;SHT31;56185;48.526;9.044;2022-11-03T09:46:45;8.13;82.68
69084;SHT31;56185;48.526;9.044;2022-11-03T09:49:14;8.07;82.61
69084;SHT31;56185;48.526;9.044;2022-11-03T09:51:40;8.13;83.02
69084;SHT31;56185;48.526;9.044;2022-11-03T09:54:05;8.21;83.11
69084;SHT31;56185;48.526;9.044;2022-11-03T09:56:34;8.23;82.75
69084;SHT31;56185;48.526;9.044;2022-11-03T09:59:00;8.26;82.76
69084;SHT31;56185;48.526;9.044;2022-11-03T10:01:25;8.36;83.40
69084;SHT31;56185;48.526;9.044;2022-11-03T10:03:51;8.40;82.83
69084;SHT31;56185;48.526;9.044;2022-11-03T10:06:16;8.42;82.24
69084;SHT31;56185;48.526;9.044;2022-11-03T10:08:43;8.39;82.88
69084;SHT31;56185;48.526;9.044;2022-11-03T10:11:10;8.42;83.39
69084;SHT31;56185;48.526;9.044;2022-11-03T10:13:41;8.59;82.09
69084;SHT31;56185;48.526;9.044;2022-11-03T10:16:08;8.60;82.20
69084;SHT31;56185;48.526;9.044;2022-11-03T10:18:35;8.61;82.46
69084;SHT31;56185;48.526;9.044;2022-11-03T10:21:04;8.68;81.97
69084;SHT31;56185;48.526;9.044;2022-11-03T10:23:30;8.81;81.71
69084;SHT31;56185;48.526;9.044;2022-11-03T10:26:14;8.87;80.68
69084;SHT31;56185;48.526;9.044;2022-11-03T10:31:30;9.02;80.85
69084;SHT31;56185;48.526;9.044;2022-11-03T10:33:56;9.15;79.98
69084;SHT31;56185;48.526;9.044;2022-11-03T10:36:29;9.19;79.58
69084;SHT31;56185;48.526;9.044;2022-11-03T10:38:55;9.23;80.18
69084;SHT31;56185;48.526;9.044;2022-11-03T10:41:28;9.35;79.76
69084;SHT31;56185;48.526;9.044;2022-11-03T10:46:38;9.52;79.04
69084;SHT31;56185;48.526;9.044;2022-11-03T10:51:33;9.57;79.46
69084;SHT31;56185;48.526;9.044;2022-11-03T10:53:58;9.67;79.28
69084;SHT31;56185;48.526;9.044;2022-11-03T10:56:24;9.81;79.48
69084;SHT31;56185;48.526;9.044;2022-11-03T10:58:50;9.89;79.84
69084;SHT31;56185;48.526;9.044;2022-11-03T11:01:15;9.97;79.70
69084;SHT31;56185;48.526;9.044;2022-11-03T11:03:42;10.01;79.01
69084;SHT31;56185;48.526;9.044;2022-11-03T11:06:34;10.11;78.68
69084;SHT31;56185;48.526;9.044;2022-11-03T11:09:01;10.10;78.97
69084;SHT31;56185;48.526;9.044;2022-11-03T11:11:27;10.18;78.52
69084;SHT31;56185;48.526;9.044;2022-11-03T11:14:22;10.32;78.60
69084;SHT31;56185;48.526;9.044;2022-11-03T11:16:58;10.37;78.56
69084;SHT31;56185;48.526;9.044;2022-11-03T11:19:25;10.46;78.27
69084;SHT31;56185;48.526;9.044;2022-11-03T11:29:56;10.66;77.55
69084;SHT31;56185;48.526;9.044;2022-11-03T11:35:10;10.82;77.58
69084;SHT31;56185;48.526;9.044;2022-11-03T11:37:37;10.84;76.42
69084;SHT31;56185;48.526;9.044;2022-11-03T11:48:38;10.82;76.51
69084;SHT31;56185;48.526;9.044;2022-11-03T11:51:08;11.00;76.99
69084;SHT31;56185;48.526;9.044;2022-11-03T11:53:39;11.13;77.18
69084;SHT31;56185;48.526;9.044;2022-11-03T11:56:08;11.23;77.51
69084;SHT31;56185;48.526;9.044;2022-11-03T11:58:44;11.44;76.29
69084;SHT31;56185;48.526;9.044;2022-11-03T12:01:30;11.31;75.33
69084;SHT31;56185;48.526;9.044;2022-11-03T12:03:58;11.32;75.57
69084;SHT31;56185;48.526;9.044;2022-11-03T12:06:35;11.30;75.87
69084;SHT31;56185;48.526;9.044;2022-11-03T12:09:06;11.42;75.69
69084;SHT31;56185;48.526;9.044;2022-11-03T12:11:50;11.48;76.06
69084;SHT31;56185;48.526;9.044;2022-11-03T12:14:38;11.55;76.45
69084;SHT31;56185;48.526;9.044;2022-11-03T12:19:51;11.67;74.90
69084;SHT31;56185;48.526;9.044;2022-11-03T12:24:52;11.69;75.43
69084;SHT31;56185;48.526;9.044;2022-11-03T12:29:53;11.74;75.72
69084;SHT31;56185;48.526;9.044;2022-11-03T12:32:19;11.77;76.06
69084;SHT31;56185;48.526;9.044;2022-11-03T12:34:45;11.75;76.50
69084;SHT31;56185;48.526;9.044;2022-11-03T12:37:10;11.81;76.56
69084;SHT31;56185;48.526;9.044;2022-11-03T12:39:36;11.82;76.00
69084;SHT31;56185;48.526;9.044;2022-11-03T12:42:01;11.81;75.94
69084;SHT31;56185;48.526;9.044;2022-11-03T12:44:27;11.83;76.33
69084;SHT31;56185;48.526;9.044;2022-11-03T12:46:52;11.82;77.04
69084;SHT31;56185;48.526;9.044;2022-11-03T12:49:17;11.85;76.45
69084;SHT31;56185;48.526;9.044;2022-11-03T12:51:42;11.89;76.32
69084;SHT31;56185;48.526;9.044;2022-11-03T12:54:08;11.89;76.59
69084;SHT31;56185;48.526;9.044;2022-11-03T12:56:33;11.90;76.02
69084;SHT31;56185;48.526;9.044;2022-11-03T12:58:58;11.96;75.50
69084;SHT31;56185;48.526;9.044;2022-11-03T13:01:23;11.92;76.00
69084;SHT31;56185;48.526;9.044;2022-11-03T13:03:49;11.88;76.84
69084;SHT31;56185;48.526;9.044;2022-11-03T13:06:14;11.89;77.09
69084;SHT31;56185;48.526;9.044;2022-11-03T13:08:39;11.90;77.60
69084;SHT31;56185;48.526;9.044;2022-11-03T13:11:06;11.95;76.79
69084;SHT31;56185;48.526;9.044;2022-11-03T13:13:31;12.00;76.83
69084;SHT31;56185;48.526;9.044;2022-11-03T13:15:57;12.00;75.42
69084;SHT31;56185;48.526;9.044;2022-11-03T13:18:22;11.99;76.26
69084;SHT31;56185;48.526;9.044;2022-11-03T13:20:47;12.02;75.95
69084;SHT31;56185;48.526;9.044;2022-11-03T13:23:13;12.06;76.51
69084;SHT31;56185;48.526;9.044;2022-11-03T13:25:38;12.13;76.02
69084;SHT31;56185;48.526;9.044;2022-11-03T13:28:03;12.18;76.12
69084;SHT31;56185;48.526;9.044;2022-11-03T13:30:30;12.15;75.86
69084;SHT31;56185;48.526;9.044;2022-11-03T13:32:56;12.18;75.32
69084;SHT31;56185;48.526;9.044;2022-11-03T13:35:21;12.16;75.86
69084;SHT31;56185;48.526;9.044;2022-11-03T13:37:46;12.16;75.92
69084;SHT31;56185;48.526;9.044;2022-11-03T13:40:12;12.23;75.68
69084;SHT31;56185;48.526;9.044;2022-11-03T13:42:38;12.19;75.74
69084;SHT31;56185;48.526;9.044;2022-11-03T13:45:04;12.23;75.79
69084;SHT31;56185;48.526;9.044;2022-11-03T13:47:29;12.27;76.01
69084;SHT31;56185;48.526;9.044;2022-11-03T13:49:55;12.15;75.55
69084;SHT31;56185;48.526;9.044;2022-11-03T13:52:20;12.19;75.99
69084;SHT31;56185;48.526;9.044;2022-11-03T13:54:46;12.22;76.22
69084;SHT31;56185;48.526;9.044;2022-11-03T13:57:11;12.26;75.81
69084;SHT31;56185;48.526;9.044;2022-11-03T13:59:37;12.23;76.77
69084;SHT31;56185;48.526;9.044;2022-11-03T14:02:03;12.26;76.85
69084;SHT31;56185;48.526;9.044;2022-11-03T14:04:29;12.33;76.21
69084;SHT31;56185;48.526;9.044;2022-11-03T14:06:54;12.29;76.95
69084;SHT31;56185;48.526;9.044;2022-11-03T14:09:20;12.29;77.20
69084;SHT31;56185;48.526;9.044;2022-11-03T14:11:45;12.27;77.01
69084;SHT31;56185;48.526;9.044;2022-11-03T14:14:10;12.27;77.06
69084;SHT31;56185;48.526;9.044;2022-11-03T14:16:35;12.27;77.25
69084;SHT31;56185;48.526;9.044;2022-11-03T14:19:01;12.32;76.48
69084;SHT31;56185;48.526;9.044;2022-11-03T14:21:26;12.32;76.97
69084;SHT31;56185;48.526;9.044;2022-11-03T14:23:51;12.29;77.77
69084;SHT31;56185;48.526;9.044;2022-11-03T14:26:16;12.23;78.87
69084;SHT31;56185;48.526;9.044;2022-11-03T14:28:42;12.19;78.29
69084;SHT31;56185;48.526;9.044;2022-11-03T14:31:07;12.20;78.74
69084;SHT31;56185;48.526;9.044;2022-11-03T14:33:32;12.15;78.62
69084;SHT31;56185;48.526;9.044;2022-11-03T14:35:57;12.18;78.21
69084;SHT31;56185;48.526;9.044;2022-11-03T14:38:23;12.22;79.24
69084;SHT31;56185;48.526;9.044;2022-11-03T14:40:48;12.20;78.65
69084;SHT31;56185;48.526;9.044;2022-11-03T14:43:14;12.23;78.45
69084;SHT31;56185;48.526;9.044;2022-11-03T14:45:39;12.20;78.27
69084;SHT31;56185;48.526;9.044;2022-11-03T14:48:04;12.16;79.59
69084;SHT31;56185;48.526;9.044;2022-11-03T14:50:30;12.13;78.92
69084;SHT31;56185;48.526;9.044;2022-11-03T14:52:55;12.12;79.57
69084;SHT31;56185;48.526;9.044;2022-11-03T14:55:20;12.10;79.76
69084;SHT31;56185;48.526;9.044;2022-11-03T14:57:45;12.16;79.35
69084;SHT31;56185;48.526;9.044;2022-11-03T15:00:11;12.19;78.93
69084;SHT31;56185;48.526;9.044;2022-11-03T15:02:36;11.95;80.25
69084;SHT31;56185;48.526;9.044;2022-11-03T15:05:01;11.92;80.25
69084;SHT31;56185;48.526;9.044;2022-11-03T15:07:27;11.85;80.69
69084;SHT31;56185;48.526;9.044;2022-11-03T15:09:52;11.81;80.49
69084;SHT31;56185;48.526;9.044;2022-11-03T15:12:17;11.95;80.07
69084;SHT31;56185;48.526;9.044;2022-11-03T15:14:43;11.85;80.85
69084;SHT31;56185;48.526;9.044;2022-11-03T15:17:08;11.99;80.35
69084;SHT31;56185;48.526;9.044;2022-11-03T15:19:33;12.02;80.51
69084;SHT31;56185;48.526;9.044;2022-11-03T15:21:58;11.93;80.49
69084;SHT31;56185;48.526;9.044;2022-11-03T15:24:23;11.92;80.37
69084;SHT31;56185;48.526;9.044;2022-11-03T15:26:49;11.99;80.41
69084;SHT31;56185;48.526;9.044;2022-11-03T15:29:14;11.93;80.37
69084;SHT31;56185;48.526;9.044;2022-11-03T15:31:39;11.90;80.71
69084;SHT31;56185;48.526;9.044;2022-11-03T15:34:04;11.88;80.96
69084;SHT31;56185;48.526;9.044;2022-11-03T15:36:30;11.96;80.98
69084;SHT31;56185;48.526;9.044;2022-11-03T15:38:55;11.90;80.94
69084;SHT31;56185;48.526;9.044;2022-11-03T15:41:20;11.85;81.39
69084;SHT31;56185;48.526;9.044;2022-11-03T15:43:47;11.81;81.32
69084;SHT31;56185;48.526;9.044;2022-11-03T15:46:14;11.88;81.05
69084;SHT31;56185;48.526;9.044;2022-11-03T15:48:41;11.77;81.29
69084;SHT31;56185;48.526;9.044;2022-11-03T15:51:06;11.77;81.48
69084;SHT31;56185;48.526;9.044;2022-11-03T15:53:32;11.79;81.36
69084;SHT31;56185;48.526;9.044;2022-11-03T15:55:57;11.74;81.33
69084;SHT31;56185;48.526;9.044;2022-11-03T15:58:22;11.72;81.32
69084;SHT31;56185;48.526;9.044;2022-11-03T16:00:48;11.74;81.38
69084;SHT31;56185;48.526;9.044;2022-11-03T16:03:13;11.77;81.32
69084;SHT31;56185;48.526;9.044;2022-11-03T16:05:38;11.69;81.59
69084;SHT31;56185;48.526;9.044;2022-11-03T16:08:03;11.69;81.36
69084;SHT31;56185;48.526;9.044;2022-11-03T16:10:29;11.74;81.62
69084;SHT31;56185;48.526;9.044;2022-11-03T16:12:54;11.68;81.55
69084;SHT31;56185;48.526;9.044;2022-11-03T16:15:19;11.65;81.66
69084;SHT31;56185;48.526;9.044;2022-11-03T16:17:44;11.62;82.05
69084;SHT31;56185;48.526;9.044;2022-11-03T16:20:10;11.57;82.03
69084;SHT31;56185;48.526;9.044;2022-11-03T16:22:35;11.45;82.50
69084;SHT31;56185;48.526;9.044;2022-11-03T16:25:00;11.34;82.91
69084;SHT31;56185;48.526;9.044;2022-11-03T16:27:26;11.21;83.29
69084;SHT31;56185;48.526;9.044;2022-11-03T16:29:51;11.20;83.29
69084;SHT31;56185;48.526;9.044;2022-11-03T16:32:16;11.26;82.62
69084;SHT31;56185;48.526;9.044;2022-11-03T16:34:41;11.32;82.36
69084;SHT31;56185;48.526;9.044;2022-11-03T16:37:06;11.47;81.97
69084;SHT31;56185;48.526;9.044;2022-11-03T16:39:32;11.42;82.34
69084;SHT31;56185;48.526;9.044;2022-11-03T16:41:57;11.44;82.56
69084;SHT31;56185;48.526;9.044;2022-11-03T16:44:22;11.41;82.35
69084;SHT31;56185;48.526;9.044;2022-11-03T16:46:47;11.41;82.38